createdAt,value
2023-05-06T00:01:41.260Z,12.85
2023-05-06T00:04:08.006Z,12.93
2023-05-06T00:06:34.704Z,12.57
2023-05-06T00:09:01.240Z,13.52
2023-05-06T00:11:27.845Z,12.50
2023-05-06T00:13:54.422Z,13.38
2023-05-06T00:16:21.046Z,13.18
2023-05-06T00:18:47.618Z,12.63
2023-05-06T00:21:14.219Z,12.90
2023-05-06T00:23:40.756Z,12.95
2023-05-06T00:26:07.479Z,13.13
2023-05-06T00:28:34.157Z,13.25
2023-05-06T00:31:00.748Z,13.05
2023-05-06T00:33:27.389Z,13.27
2023-05-06T00:35:54.083Z,12.70
2023-05-06T00:38:20.708Z,12.80
2023-05-06T00:40:47.611Z,11.93
2023-05-06T00:43:14.219Z,12.02
2023-05-06T00:45:40.887Z,12.25
2023-05-06T00:48:07.843Z,12.07
2023-05-06T00:50:35.339Z,13.07
2023-05-06T00:53:04.237Z,12.00
2023-05-06T00:55:31.236Z,12.15
2023-05-06T00:57:57.976Z,12.85
2023-05-06T01:00:24.584Z,12.60
2023-05-06T01:02:51.799Z,12.63
2023-05-06T01:05:21.583Z,14.15
2023-05-06T01:07:51.254Z,14.15
2023-05-06T01:10:26.799Z,14.13
2023-05-06T01:12:56.541Z,13.15
2023-05-06T01:15:46.138Z,14.13
2023-05-06T01:18:17.062Z,14.43
2023-05-06T01:20:49.621Z,13.90
2023-05-06T01:23:16.552Z,15.43
2023-05-06T01:25:44.539Z,13.32
2023-05-06T01:28:12.145Z,14.65
2023-05-06T01:31:19.927Z,13.43
2023-05-06T01:34:01.528Z,13.00
2023-05-06T01:36:37.590Z,14.63
2023-05-06T01:39:25.037Z,15.20
2023-05-06T01:41:51.971Z,14.23
2023-05-06T01:44:20.997Z,13.27
2023-05-06T01:46:48.747Z,14.60
2023-05-06T01:49:16.936Z,15.45
2023-05-06T01:51:50.791Z,13.50
2023-05-06T01:54:17.660Z,13.05
2023-05-06T01:56:44.894Z,12.38
2023-05-06T01:59:11.539Z,14.02
2023-05-06T02:01:38.196Z,14.30
2023-05-06T02:04:07.109Z,13.07
2023-05-06T02:06:34.227Z,14.57
2023-05-06T02:09:00.960Z,16.17
2023-05-06T02:11:28.702Z,15.38
2023-05-06T02:14:02.209Z,13.35
2023-05-06T02:16:31.488Z,14.98
2023-05-06T02:18:58.218Z,16.15
2023-05-06T02:21:24.883Z,15.75
2023-05-06T02:23:51.502Z,15.05
2023-05-06T02:26:18.213Z,13.98
2023-05-06T02:28:44.775Z,14.57
2023-05-06T02:31:16.236Z,16.42
2023-05-06T02:33:43.539Z,15.07
2023-05-06T02:36:11.174Z,14.77
2023-05-06T02:38:37.779Z,13.90
2023-05-06T02:41:04.415Z,13.55
2023-05-06T02:43:31.004Z,14.65
2023-05-06T02:45:58.357Z,13.95
2023-05-06T02:48:25.727Z,13.98
2023-05-06T02:50:52.321Z,13.90
2023-05-06T02:53:19.034Z,14.43
2023-05-06T02:55:45.678Z,13.32
2023-05-06T02:58:12.251Z,13.25
2023-05-06T03:00:38.946Z,13.90
2023-05-06T03:03:05.833Z,13.40
2023-05-06T03:05:32.442Z,14.30
2023-05-06T03:07:59.064Z,12.88
2023-05-06T03:10:25.840Z,14.25
2023-05-06T03:12:53.612Z,12.93
2023-05-06T03:15:20.257Z,15.43
2023-05-06T03:17:47.607Z,13.82
2023-05-06T03:20:14.502Z,15.20
2023-05-06T03:22:47.433Z,14.20
2023-05-06T03:25:14.242Z,13.98
2023-05-06T03:27:42.218Z,13.75
2023-05-06T03:30:16.322Z,12.23
2023-05-06T03:32:43.904Z,12.23
2023-05-06T03:35:14.526Z,13.10
2023-05-06T03:37:44.110Z,12.45
2023-05-06T03:40:11.143Z,14.40
2023-05-06T03:42:38.066Z,12.13
2023-05-06T03:45:06.564Z,11.95
2023-05-06T03:47:34.019Z,12.85
2023-05-06T03:50:02.797Z,12.23
2023-05-06T03:52:31.241Z,11.88
2023-05-06T03:54:59.004Z,12.00
2023-05-06T03:57:26.736Z,12.52
2023-05-06T03:59:53.505Z,13.25
2023-05-06T04:02:20.660Z,11.95
2023-05-06T04:04:47.743Z,11.68
2023-05-06T04:07:14.347Z,11.95
2023-05-06T04:09:41.033Z,12.32
2023-05-06T04:12:11.445Z,11.93
2023-05-06T04:14:39.515Z,12.13
2023-05-06T04:17:06.238Z,12.43
2023-05-06T04:19:33.569Z,12.10
2023-05-06T04:22:00.364Z,11.63
2023-05-06T04:24:28.461Z,12.50
2023-05-06T04:26:55.891Z,11.85
2023-05-06T04:29:25.454Z,11.40
2023-05-06T04:31:57.984Z,12.27
2023-05-06T04:34:27.612Z,13.70
2023-05-06T04:36:55.313Z,12.18
2023-05-06T04:39:36.943Z,12.93
2023-05-06T04:42:03.748Z,13.43
2023-05-06T04:44:37.477Z,13.10
2023-05-06T04:47:10.767Z,12.50
2023-05-06T04:49:42.554Z,12.75
2023-05-06T04:52:09.994Z,14.23
2023-05-06T04:54:36.668Z,12.07
2023-05-06T04:57:04.474Z,13.25
2023-05-06T04:59:32.360Z,13.25
2023-05-06T05:02:00.888Z,13.48
2023-05-06T05:04:27.517Z,11.65
2023-05-06T05:06:54.422Z,13.50
2023-05-06T05:09:21.410Z,12.63
2023-05-06T05:11:48.848Z,13.07
2023-05-06T05:14:15.466Z,13.32
2023-05-06T05:16:43.192Z,11.50
2023-05-06T05:19:10.143Z,13.63
2023-05-06T05:21:36.910Z,12.25
2023-05-06T05:24:04.594Z,12.02
2023-05-06T05:26:31.465Z,12.02
2023-05-06T05:28:59.679Z,12.98
2023-05-06T05:31:27.823Z,12.40
2023-05-06T05:33:55.297Z,11.60
2023-05-06T05:36:23.270Z,12.90
2023-05-06T05:38:53.124Z,11.70
2023-05-06T05:41:21.315Z,10.77
2023-05-06T05:43:48.144Z,10.85
2023-05-06T05:46:16.785Z,10.65
2023-05-06T05:48:45.013Z,11.27
2023-05-06T05:51:11.650Z,9.50
2023-05-06T05:53:38.956Z,10.73
2023-05-06T05:56:07.088Z,11.15
2023-05-06T05:58:34.311Z,10.38
2023-05-06T06:01:01.599Z,10.80
2023-05-06T06:03:28.316Z,10.85
2023-05-06T06:05:55.297Z,11.20
2023-05-06T06:08:24.236Z,11.27
2023-05-06T06:10:52.445Z,11.35
2023-05-06T06:13:24.180Z,12.98
2023-05-06T06:15:52.145Z,11.35
2023-05-06T06:18:20.318Z,11.52
2023-05-06T06:20:47.195Z,12.80
2023-05-06T06:23:14.223Z,12.80
2023-05-06T06:25:40.983Z,11.85
2023-05-06T06:28:07.659Z,11.82
2023-05-06T06:30:34.325Z,12.27
2023-05-06T06:33:01.604Z,11.65
2023-05-06T06:35:28.992Z,12.57
2023-05-06T06:37:55.607Z,12.88
2023-05-06T06:40:22.471Z,12.38
2023-05-06T06:42:49.075Z,13.05
2023-05-06T06:45:54.208Z,12.90
2023-05-06T06:48:21.001Z,12.77
2023-05-06T06:50:47.643Z,13.50
2023-05-06T06:53:14.215Z,13.73
2023-05-06T06:55:44.800Z,13.02
2023-05-06T06:58:11.419Z,12.70
2023-05-06T07:00:38.056Z,13.70
2023-05-06T07:03:04.759Z,13.88
2023-05-06T07:05:31.499Z,13.98
2023-05-06T07:07:58.119Z,13.77
2023-05-06T07:10:24.729Z,14.70
2023-05-06T07:12:51.774Z,15.27
2023-05-06T07:15:18.460Z,13.75
2023-05-06T07:17:45.181Z,14.30
2023-05-06T07:20:12.413Z,15.30
2023-05-06T07:22:41.069Z,14.88
2023-05-06T07:25:08.180Z,14.40
2023-05-06T07:27:34.865Z,16.83
2023-05-06T07:30:01.467Z,14.57
2023-05-06T07:32:28.168Z,14.73
2023-05-06T07:34:54.793Z,15.00
2023-05-06T07:37:21.387Z,15.13
2023-05-06T07:39:48.007Z,14.68
2023-05-06T07:42:14.668Z,15.05
2023-05-06T07:44:41.232Z,14.90
2023-05-06T07:47:08.098Z,14.60
2023-05-06T07:49:36.073Z,15.20
2023-05-06T07:52:03.534Z,15.77
2023-05-06T07:54:31.735Z,15.45
2023-05-06T07:56:58.609Z,14.25
2023-05-06T07:59:25.580Z,14.02
2023-05-06T08:01:52.244Z,14.05
2023-05-06T08:04:19.064Z,13.65
2023-05-06T08:06:45.807Z,14.35
2023-05-06T08:09:16.922Z,13.13
2023-05-06T08:11:49.874Z,12.52
2023-05-06T08:14:16.451Z,12.10
2023-05-06T08:16:43.242Z,12.88
2023-05-06T08:19:10.010Z,11.60
2023-05-06T08:21:36.564Z,11.48
2023-05-06T08:24:03.389Z,10.45
2023-05-06T08:26:29.992Z,11.60
2023-05-06T08:28:57.672Z,11.20
2023-05-06T08:31:24.310Z,10.50
2023-05-06T08:33:53.888Z,11.38
2023-05-06T08:36:21.994Z,10.18
2023-05-06T08:38:50.760Z,10.38
2023-05-06T08:41:21.407Z,9.48
2023-05-06T08:43:49.785Z,9.10
2023-05-06T08:46:17.319Z,9.82
2023-05-06T08:48:44.003Z,9.07
2023-05-06T08:51:13.706Z,8.43
2023-05-06T08:53:43.743Z,9.15
2023-05-06T08:56:12.301Z,8.20
2023-05-06T08:58:39.162Z,7.18
2023-05-06T09:01:06.165Z,8.57
2023-05-06T09:03:34.088Z,8.07
2023-05-06T09:06:00.831Z,8.20
2023-05-06T09:08:27.462Z,7.10
2023-05-06T09:10:55.298Z,7.45
2023-05-06T09:13:22.239Z,7.05
2023-05-06T09:15:49.412Z,8.27
2023-05-06T09:18:17.150Z,8.60
2023-05-06T09:20:50.643Z,8.55
2023-05-06T09:23:18.280Z,8.43
2023-05-06T09:25:46.474Z,8.40
2023-05-06T09:28:14.022Z,8.60
2023-05-06T09:30:43.279Z,21.13
2023-05-06T09:33:10.232Z,8.07
2023-05-06T09:35:40.239Z,15.02
2023-05-06T09:38:07.708Z,8.43
2023-05-06T09:40:38.238Z,9.18
2023-05-06T09:43:05.783Z,7.68
2023-05-06T09:45:32.863Z,6.60
2023-05-06T09:47:59.668Z,6.72
2023-05-06T09:50:26.831Z,6.43
2023-05-06T09:52:55.302Z,15.80
2023-05-06T09:55:23.766Z,6.47
2023-05-06T09:57:50.520Z,5.60
2023-05-06T10:00:17.926Z,5.57
2023-05-06T10:02:45.930Z,6.03
2023-05-06T10:05:14.008Z,5.55
2023-05-06T10:07:44.009Z,5.63
2023-05-06T10:10:12.104Z,6.07
2023-05-06T10:12:39.057Z,5.40
2023-05-06T10:15:14.390Z,6.53
2023-05-06T10:17:41.792Z,5.47
2023-05-06T10:20:09.267Z,5.13
2023-05-06T10:22:41.717Z,5.65
2023-05-06T10:25:34.946Z,5.40
2023-05-06T10:28:06.162Z,5.30
2023-05-06T10:30:39.753Z,4.85
2023-05-06T10:33:10.439Z,4.28
2023-05-06T10:35:45.995Z,4.18
2023-05-06T10:38:31.213Z,4.68
2023-05-06T10:40:58.375Z,4.20
2023-05-06T10:43:25.376Z,3.55
2023-05-06T10:46:00.854Z,3.50
2023-05-06T10:48:28.498Z,3.88
2023-05-06T10:51:28.254Z,5.90
2023-05-06T10:53:55.728Z,5.63
2023-05-06T10:56:22.318Z,5.65
2023-05-06T10:58:51.768Z,5.47
2023-05-06T11:01:22.133Z,5.53
2023-05-06T11:03:50.691Z,6.00
2023-05-06T11:06:37.528Z,5.85
2023-05-06T11:09:05.235Z,5.80
2023-05-06T11:11:52.237Z,5.32
2023-05-06T11:14:34.245Z,4.60
2023-05-06T11:17:03.760Z,5.07
2023-05-06T11:19:32.609Z,6.05
2023-05-06T11:22:03.936Z,3.75
2023-05-06T11:24:42.104Z,2.42
2023-05-06T11:27:10.390Z,2.75
2023-05-06T11:29:39.693Z,2.70
2023-05-06T11:32:20.585Z,2.80
2023-05-06T11:34:48.874Z,2.58
2023-05-06T11:37:29.844Z,4.20
2023-05-06T11:39:56.822Z,4.68
2023-05-06T11:42:28.096Z,3.85
2023-05-06T11:44:55.618Z,4.13
2023-05-06T11:47:23.376Z,3.60
2023-05-06T11:49:56.252Z,3.40
2023-05-06T11:52:22.862Z,3.70
2023-05-06T11:54:51.473Z,3.10
2023-05-06T11:57:19.962Z,3.20
2023-05-06T11:59:46.626Z,3.55
2023-05-06T12:02:14.206Z,3.50
2023-05-06T12:04:42.774Z,3.60
2023-05-06T12:07:18.081Z,3.10
2023-05-06T12:09:49.006Z,3.08
2023-05-06T12:12:18.320Z,2.97
2023-05-06T12:14:45.276Z,3.05
2023-05-06T12:17:12.723Z,3.10
2023-05-06T12:19:39.512Z,3.20
2023-05-06T12:22:22.751Z,2.70
2023-05-06T12:24:49.605Z,2.63
2023-05-06T12:27:38.258Z,2.60
2023-05-06T12:30:09.021Z,2.88
2023-05-06T12:32:36.276Z,2.90
2023-05-06T12:35:07.452Z,2.80
2023-05-06T12:37:34.370Z,3.53
2023-05-06T12:40:01.219Z,3.80
2023-05-06T12:42:29.565Z,3.33
2023-05-06T12:44:56.327Z,3.40
2023-05-06T12:47:24.792Z,3.03
2023-05-06T12:49:58.377Z,2.85
2023-05-06T12:52:30.346Z,2.50
2023-05-06T12:54:57.205Z,2.92
2023-05-06T12:57:23.977Z,2.97
2023-05-06T12:59:51.290Z,2.55
2023-05-06T13:02:18.224Z,2.30
2023-05-06T13:04:46.987Z,2.78
2023-05-06T13:07:13.955Z,2.63
2023-05-06T13:09:40.631Z,2.90
2023-05-06T13:12:08.294Z,3.08
2023-05-06T13:14:36.410Z,2.70
2023-05-06T13:17:06.817Z,2.40
2023-05-06T13:19:33.783Z,2.42
2023-05-06T13:22:02.764Z,2.80
2023-05-06T13:24:29.739Z,1.70
2023-05-06T13:26:57.162Z,1.83
2023-05-06T13:29:24.742Z,1.88
2023-05-06T13:31:51.742Z,1.95
2023-05-06T13:34:18.621Z,1.75
2023-05-06T13:36:46.662Z,2.08
2023-05-06T13:39:13.379Z,1.98
2023-05-06T13:41:39.992Z,1.80
2023-05-06T13:44:08.658Z,2.00
2023-05-06T13:46:35.350Z,1.85
2023-05-06T13:49:02.006Z,1.77
2023-05-06T13:51:30.762Z,1.73
2023-05-06T13:53:57.538Z,1.70
2023-05-06T13:56:24.768Z,1.75
2023-05-06T13:58:53.149Z,1.60
2023-05-06T14:01:25.426Z,1.52
2023-05-06T14:03:53.004Z,1.90
2023-05-06T14:06:20.206Z,1.50
2023-05-06T14:08:47.158Z,1.33
2023-05-06T14:11:13.753Z,1.20
2023-05-06T14:13:41.090Z,1.33
2023-05-06T14:16:07.984Z,1.52
2023-05-06T14:18:34.746Z,1.50
2023-05-06T14:21:01.501Z,1.67
2023-05-06T14:23:28.262Z,1.30
2023-05-06T14:25:55.096Z,1.20
2023-05-06T14:28:22.866Z,1.30
2023-05-06T14:30:50.893Z,1.25
2023-05-06T14:33:17.518Z,1.60
2023-05-06T14:35:47.469Z,1.60
2023-05-06T14:38:15.246Z,1.48
2023-05-06T14:40:42.021Z,1.50
2023-05-06T14:43:08.886Z,1.33
2023-05-06T14:45:37.415Z,1.13
2023-05-06T14:48:06.917Z,1.50
2023-05-06T14:50:35.791Z,1.42
2023-05-06T14:53:03.774Z,1.35
2023-05-06T14:55:30.831Z,1.20
2023-05-06T14:57:58.854Z,1.40
2023-05-06T15:00:25.652Z,1.30
2023-05-06T15:02:52.439Z,1.67
2023-05-06T15:05:19.374Z,1.73
2023-05-06T15:07:46.583Z,1.75
2023-05-06T15:10:13.383Z,5.40
2023-05-06T15:12:40.291Z,2.15
2023-05-06T15:15:08.010Z,3.22
2023-05-06T15:17:35.280Z,1.90
2023-05-06T15:20:02.115Z,2.90
2023-05-06T15:22:28.920Z,7.57
2023-05-06T15:24:56.047Z,2.53
2023-05-06T15:27:22.817Z,2.58
2023-05-06T15:29:50.468Z,2.10
2023-05-06T15:32:18.598Z,4.85
2023-05-06T15:34:45.800Z,2.20
2023-05-06T15:37:15.726Z,1.83
2023-05-06T15:39:42.420Z,1.90
2023-05-06T15:42:09.893Z,1.98
2023-05-06T15:44:37.544Z,1.98
2023-05-06T15:47:05.168Z,1.90
2023-05-06T15:52:05.956Z,1.70
2023-05-06T15:54:37.101Z,2.08
2023-05-06T15:57:07.380Z,1.80
2023-05-06T15:59:35.709Z,2.60
2023-05-06T16:04:35.107Z,2.10
2023-05-06T16:07:04.486Z,2.33
2023-05-06T16:09:33.830Z,2.63
2023-05-06T16:12:01.355Z,2.20
2023-05-06T16:14:28.488Z,2.03
2023-05-06T16:16:55.125Z,2.15
2023-05-06T16:19:21.734Z,2.20
2023-05-06T16:21:48.559Z,1.88
2023-05-06T16:24:15.922Z,1.83
2023-05-06T16:26:42.600Z,2.30
2023-05-06T16:29:10.172Z,2.50
2023-05-06T16:31:37.718Z,2.40
2023-05-06T16:34:04.504Z,2.80
2023-05-06T16:36:33.377Z,2.40
2023-05-06T16:39:05.922Z,2.40
2023-05-06T16:41:32.616Z,2.78
2023-05-06T16:44:07.491Z,2.50
2023-05-06T16:46:35.548Z,1.98
2023-05-06T16:49:03.841Z,1.30
2023-05-06T16:51:32.861Z,1.20
2023-05-06T16:54:00.658Z,1.17
2023-05-06T16:56:36.717Z,1.35
2023-05-06T16:59:11.291Z,1.50
2023-05-06T17:01:39.792Z,1.42
2023-05-06T17:04:06.623Z,1.17
2023-05-06T17:06:33.743Z,1.50
2023-05-06T17:09:00.787Z,1.50
2023-05-06T17:11:27.466Z,1.10
2023-05-06T17:13:54.489Z,1.30
2023-05-06T17:16:22.879Z,1.55
2023-05-06T17:18:50.801Z,1.30
2023-05-06T17:21:17.882Z,1.50
2023-05-06T17:23:45.241Z,1.83
2023-05-06T17:26:12.039Z,2.00
2023-05-06T17:28:39.261Z,2.10
2023-05-06T17:31:06.608Z,2.40
2023-05-06T17:33:33.302Z,2.17
2023-05-06T17:36:00.459Z,2.78
2023-05-06T17:38:27.738Z,2.92
2023-05-06T17:40:54.735Z,2.08
2023-05-06T17:43:21.568Z,2.40
2023-05-06T17:45:52.072Z,4.10
2023-05-06T17:48:18.779Z,3.88
2023-05-06T17:53:43.893Z,3.38
2023-05-06T17:56:11.499Z,2.60
2023-05-06T17:58:38.175Z,3.10
2023-05-06T18:01:09.153Z,2.95
2023-05-06T18:03:39.634Z,2.85
2023-05-06T18:06:06.495Z,3.15
2023-05-06T18:08:33.122Z,3.10
2023-05-06T18:11:01.595Z,3.20
2023-05-06T18:13:28.370Z,4.18
2023-05-06T18:15:55.136Z,3.22
2023-05-06T18:18:21.953Z,3.95
2023-05-06T18:20:48.650Z,4.40
2023-05-06T18:23:16.099Z,4.22
2023-05-06T18:25:42.763Z,5.55
2023-05-06T18:28:09.362Z,5.03
2023-05-06T18:30:37.558Z,4.95
2023-05-06T18:33:04.550Z,11.00
2023-05-06T18:35:31.302Z,11.38
2023-05-06T18:37:58.201Z,9.15
2023-05-06T18:40:26.658Z,8.10
2023-05-06T18:42:53.978Z,8.45
2023-05-06T18:45:20.785Z,9.77
2023-05-06T18:47:49.704Z,7.60
2023-05-06T18:50:18.160Z,7.18
2023-05-06T18:52:45.382Z,6.78
2023-05-06T18:55:12.389Z,6.32
2023-05-06T18:57:39.781Z,6.00
2023-05-06T19:00:07.604Z,6.90
2023-05-06T19:02:34.539Z,6.95
2023-05-06T19:05:01.275Z,6.63
2023-05-06T19:10:31.005Z,7.93
2023-05-06T19:12:59.170Z,6.97
2023-05-06T19:15:33.226Z,7.78
2023-05-06T19:18:00.166Z,10.70
2023-05-06T19:20:27.205Z,10.98
2023-05-06T19:22:53.993Z,10.50
2023-05-06T19:25:22.204Z,11.65
2023-05-06T19:27:49.306Z,13.13
2023-05-06T19:30:21.126Z,14.90
2023-05-06T19:32:49.475Z,13.00
2023-05-06T19:35:17.494Z,15.52
2023-05-06T19:37:46.456Z,13.55
2023-05-06T19:40:13.180Z,16.13
2023-05-06T19:42:39.860Z,12.27
2023-05-06T19:45:10.190Z,15.05
2023-05-06T19:47:37.517Z,14.68
2023-05-06T19:50:06.025Z,14.63
2023-05-06T19:52:34.499Z,13.80
2023-05-06T19:55:03.915Z,13.68
2023-05-06T19:57:30.967Z,14.57
2023-05-06T19:59:58.116Z,11.80
2023-05-06T20:02:25.498Z,10.35
2023-05-06T20:04:52.286Z,11.73
2023-05-06T20:07:20.970Z,11.95
2023-05-06T20:09:47.855Z,10.93
2023-05-06T20:12:26.526Z,6.10
2023-05-06T20:14:54.178Z,6.47
2023-05-06T20:17:21.263Z,7.05
2023-05-06T20:19:48.815Z,6.80
2023-05-06T20:22:15.870Z,6.72
2023-05-06T20:24:44.485Z,7.18
2023-05-06T20:27:12.735Z,7.53
2023-05-06T20:29:39.517Z,8.00
2023-05-06T20:32:06.447Z,6.93
2023-05-06T20:34:33.452Z,7.82
2023-05-06T20:37:01.276Z,8.05
2023-05-06T20:39:28.456Z,7.53
2023-05-06T20:41:55.291Z,8.43
2023-05-06T20:44:22.192Z,7.28
2023-05-06T20:46:49.271Z,7.65
2023-05-06T20:49:16.063Z,7.30
2023-05-06T20:51:42.706Z,7.57
2023-05-06T20:54:11.975Z,7.20
2023-05-06T20:56:38.691Z,7.53
2023-05-06T20:59:05.910Z,8.77
2023-05-06T21:01:32.628Z,8.68
2023-05-06T21:04:01.391Z,9.55
2023-05-06T21:06:28.367Z,9.00
2023-05-06T21:08:55.003Z,9.77
2023-05-06T21:11:22.102Z,9.20
2023-05-06T21:13:50.209Z,10.25
2023-05-06T21:16:17.335Z,10.00
2023-05-06T21:18:44.261Z,11.20
2023-05-06T21:21:12.124Z,10.80
2023-05-06T21:23:39.118Z,10.80
2023-05-06T21:26:05.743Z,11.63
2023-05-06T21:28:32.427Z,11.88
2023-05-06T21:30:59.551Z,12.57
2023-05-06T21:33:26.316Z,12.75
2023-05-06T21:35:53.121Z,12.90
2023-05-06T21:38:19.870Z,12.80
2023-05-06T21:40:46.607Z,12.40
2023-05-06T21:43:23.011Z,13.20
2023-05-06T21:45:49.938Z,11.77
2023-05-06T21:48:16.633Z,11.43
2023-05-06T21:50:43.421Z,11.80
2023-05-06T21:53:10.612Z,12.18
2023-05-06T21:55:37.508Z,12.68
2023-05-06T21:58:04.349Z,12.52
2023-05-06T22:00:30.983Z,12.70
2023-05-06T22:03:07.088Z,12.25
2023-05-06T22:05:33.829Z,12.70
2023-05-06T22:08:00.409Z,12.52
2023-05-06T22:10:27.030Z,12.60
2023-05-06T22:12:53.657Z,13.27
2023-05-06T22:15:20.366Z,13.18
2023-05-06T22:17:47.035Z,12.90
2023-05-06T22:20:15.125Z,12.90
2023-05-06T22:22:42.348Z,13.00
2023-05-06T22:25:09.682Z,13.35
2023-05-06T22:27:37.088Z,12.95
2023-05-06T22:30:04.017Z,13.63
2023-05-06T22:32:30.927Z,13.55
2023-05-06T22:34:57.730Z,12.82
2023-05-06T22:37:24.506Z,12.98
2023-05-06T22:39:54.376Z,12.35
2023-05-06T22:42:21.034Z,12.32
2023-05-06T22:44:47.801Z,11.90
2023-05-06T22:47:16.501Z,10.98
2023-05-06T22:49:43.345Z,11.55
2023-05-06T22:52:10.061Z,10.27
2023-05-06T22:54:36.798Z,11.25
2023-05-06T22:57:03.570Z,11.60
2023-05-06T22:59:30.278Z,10.73
2023-05-06T23:01:57.305Z,10.18
2023-05-06T23:04:24.049Z,10.70
2023-05-06T23:06:50.848Z,10.40
2023-05-06T23:09:17.526Z,10.35
2023-05-06T23:11:45.933Z,11.23
2023-05-06T23:14:13.052Z,11.35
2023-05-06T23:16:41.933Z,11.70
2023-05-06T23:19:10.919Z,11.13
2023-05-06T23:21:37.594Z,10.93
2023-05-06T23:24:04.423Z,11.40
2023-05-06T23:26:31.037Z,11.35
2023-05-06T23:28:57.635Z,11.23
2023-05-06T23:31:24.425Z,11.40
2023-05-06T23:33:51.219Z,11.77
2023-05-06T23:36:17.859Z,11.65
2023-05-06T23:38:44.621Z,12.73
2023-05-06T23:41:11.825Z,14.05
2023-05-06T23:43:38.427Z,14.45
2023-05-06T23:46:05.072Z,15.02
2023-05-06T23:48:31.762Z,13.63
2023-05-06T23:50:58.438Z,14.88
2023-05-06T23:53:25.076Z,14.68
2023-05-06T23:55:51.729Z,14.75
2023-05-06T23:58:18.337Z,15.43
